sensor_id;sensor_type;location;lat;lon;timestamp;temperature;humidity
21678;DHT22;11000;50.360;7.582;2022-10-16T00:00:08;15.20;99.90
21678;DHT22;11000;50.360;7.582;2022-10-16T00:02:28;15.20;99.90
21678;DHT22;11000;50.360;7.582;2022-10-16T00:04:49;15.10;99.90
21678;DHT22;11000;50.360;7.582;2022-10-16T00:07:09;15.10;99.90
21678;DHT22;11000;50.360;7.582;2022-10-16T00:09:30;15.10;99.90
21678;DHT22;11000;50.360;7.582;2022-10-16T00:11:50;15.10;99.90
21678;DHT22;11000;50.360;7.582;2022-10-16T00:14:13;15.10;99.90
21678;DHT22;11000;50.360;7.582;2022-10-16T00:16:34;15.00;99.90
21678;DHT22;11000;50.360;7.582;2022-10-16T00:18:55;15.00;99.90
21678;DHT22;11000;50.360;7.582;2022-10-16T00:21:18;15.00;99.90
21678;DHT22;11000;50.360;7.582;2022-10-16T00:23:39;15.00;99.90
21678;DHT22;11000;50.360;7.582;2022-10-16T00:26:03;15.00;99.90
21678;DHT22;11000;50.360;7.582;2022-10-16T00:28:24;15.10;99.90
21678;DHT22;11000;50.360;7.582;2022-10-16T00:30:44;15.20;99.90
21678;DHT22;11000;50.360;7.582;2022-10-16T00:33:05;15.20;99.90
21678;DHT22;11000;50.360;7.582;2022-10-16T00:35:25;15.20;99.90
21678;DHT22;11000;50.360;7.582;2022-10-16T00:37:46;15.20;99.90
21678;DHT22;11000;50.360;7.582;2022-10-16T00:40:07;15.30;99.90
21678;DHT22;11000;50.360;7.582;2022-10-16T00:42:27;15.30;99.90
21678;DHT22;11000;50.360;7.582;2022-10-16T00:44:56;15.30;99.90
21678;DHT22;11000;50.360;7.582;2022-10-16T00:47:21;15.30;99.90
21678;DHT22;11000;50.360;7.582;2022-10-16T00:49:42;15.30;99.90
21678;DHT22;11000;50.360;7.582;2022-10-16T00:52:03;15.20;99.90
21678;DHT22;11000;50.360;7.582;2022-10-16T00:54:30;15.20;99.90
21678;DHT22;11000;50.360;7.582;2022-10-16T00:56:53;15.30;99.90
21678;DHT22;11000;50.360;7.582;2022-10-16T00:59:24;15.30;99.90
21678;DHT22;11000;50.360;7.582;2022-10-16T01:01:45;15.20;99.90
21678;DHT22;11000;50.360;7.582;2022-10-16T01:04:05;15.30;99.90
21678;DHT22;11000;50.360;7.582;2022-10-16T01:06:39;15.30;99.90
21678;DHT22;11000;50.360;7.582;2022-10-16T01:17:12;15.30;99.90
21678;DHT22;11000;50.360;7.582;2022-10-16T01:20:08;15.30;99.90
21678;DHT22;11000;50.360;7.582;2022-10-16T01:23:05;15.30;99.90
21678;DHT22;11000;50.360;7.582;2022-10-16T01:28:10;15.20;99.90
21678;DHT22;11000;50.360;7.582;2022-10-16T01:30:33;15.20;99.90
21678;DHT22;11000;50.360;7.582;2022-10-16T01:33:03;15.20;99.90
21678;DHT22;11000;50.360;7.582;2022-10-16T01:35:40;15.20;99.90
21678;DHT22;11000;50.360;7.582;2022-10-16T01:38:06;15.20;99.90
21678;DHT22;11000;50.360;7.582;2022-10-16T01:40:28;15.30;99.90
21678;DHT22;11000;50.360;7.582;2022-10-16T01:42:55;15.30;99.90
21678;DHT22;11000;50.360;7.582;2022-10-16T01:45:18;15.30;99.90
21678;DHT22;11000;50.360;7.582;2022-10-16T01:47:40;15.20;99.90
21678;DHT22;11000;50.360;7.582;2022-10-16T01:50:03;15.30;99.90
21678;DHT22;11000;50.360;7.582;2022-10-16T01:52:26;15.20;99.90
21678;DHT22;11000;50.360;7.582;2022-10-16T01:54:52;15.20;99.90
21678;DHT22;11000;50.360;7.582;2022-10-16T01:57:15;15.20;99.90
21678;DHT22;11000;50.360;7.582;2022-10-16T01:59:41;15.20;99.90
21678;DHT22;11000;50.360;7.582;2022-10-16T02:02:07;15.20;99.90
21678;DHT22;11000;50.360;7.582;2022-10-16T02:04:31;15.30;99.90
21678;DHT22;11000;50.360;7.582;2022-10-16T02:06:53;15.30;99.90
21678;DHT22;11000;50.360;7.582;2022-10-16T02:09:14;15.30;99.90
21678;DHT22;11000;50.360;7.582;2022-10-16T02:11:37;15.30;99.90
21678;DHT22;11000;50.360;7.582;2022-10-16T02:14:04;15.30;99.90
21678;DHT22;11000;50.360;7.582;2022-10-16T02:18:56;15.30;99.90
21678;DHT22;11000;50.360;7.582;2022-10-16T02:21:23;15.30;99.90
21678;DHT22;11000;50.360;7.582;2022-10-16T02:23:54;15.30;99.90
21678;DHT22;11000;50.360;7.582;2022-10-16T02:26:25;15.30;99.90
21678;DHT22;11000;50.360;7.582;2022-10-16T02:28:53;15.30;99.90
21678;DHT22;11000;50.360;7.582;2022-10-16T02:31:19;15.30;99.90
21678;DHT22;11000;50.360;7.582;2022-10-16T02:33:42;15.30;99.90
21678;DHT22;11000;50.360;7.582;2022-10-16T02:36:03;15.30;99.90
21678;DHT22;11000;50.360;7.582;2022-10-16T02:38:24;15.30;99.90
21678;DHT22;11000;50.360;7.582;2022-10-16T02:40:45;15.30;99.90
21678;DHT22;11000;50.360;7.582;2022-10-16T02:43:06;15.20;99.90
21678;DHT22;11000;50.360;7.582;2022-10-16T02:45:27;15.20;99.90
21678;DHT22;11000;50.360;7.582;2022-10-16T02:47:48;15.20;99.90
21678;DHT22;11000;50.360;7.582;2022-10-16T02:50:09;15.20;99.90
21678;DHT22;11000;50.360;7.582;2022-10-16T02:52:29;15.20;99.90
21678;DHT22;11000;50.360;7.582;2022-10-16T02:54:50;15.20;99.90
21678;DHT22;11000;50.360;7.582;2022-10-16T02:57:10;15.20;99.90
21678;DHT22;11000;50.360;7.582;2022-10-16T02:59:32;15.10;99.90
21678;DHT22;11000;50.360;7.582;2022-10-16T03:01:52;15.20;99.90
21678;DHT22;11000;50.360;7.582;2022-10-16T03:04:12;15.10;99.90
21678;DHT22;11000;50.360;7.582;2022-10-16T03:06:34;15.10;99.90
21678;DHT22;11000;50.360;7.582;2022-10-16T03:08:54;15.10;99.90
21678;DHT22;11000;50.360;7.582;2022-10-16T03:11:15;15.10;99.90
21678;DHT22;11000;50.360;7.582;2022-10-16T03:13:35;15.00;99.90
21678;DHT22;11000;50.360;7.582;2022-10-16T03:15:56;15.00;99.90
21678;DHT22;11000;50.360;7.582;2022-10-16T03:18:16;15.00;99.90
21678;DHT22;11000;50.360;7.582;2022-10-16T03:20:37;15.00;99.90
21678;DHT22;11000;50.360;7.582;2022-10-16T03:22:58;15.00;99.90
21678;DHT22;11000;50.360;7.582;2022-10-16T03:25:18;15.00;99.90
21678;DHT22;11000;50.360;7.582;2022-10-16T03:27:39;14.90;99.90
21678;DHT22;11000;50.360;7.582;2022-10-16T03:29:59;14.90;99.90
21678;DHT22;11000;50.360;7.582;2022-10-16T03:32:20;14.90;99.90
21678;DHT22;11000;50.360;7.582;2022-10-16T03:34:40;14.90;99.90
21678;DHT22;11000;50.360;7.582;2022-10-16T03:37:01;14.90;99.90
21678;DHT22;11000;50.360;7.582;2022-10-16T03:39:21;14.90;99.90
21678;DHT22;11000;50.360;7.582;2022-10-16T03:41:42;14.90;99.90
21678;DHT22;11000;50.360;7.582;2022-10-16T03:44:03;14.90;99.90
21678;DHT22;11000;50.360;7.582;2022-10-16T03:46:23;14.90;99.90
21678;DHT22;11000;50.360;7.582;2022-10-16T03:48:44;14.90;99.90
21678;DHT22;11000;50.360;7.582;2022-10-16T03:51:04;14.90;99.90
21678;DHT22;11000;50.360;7.582;2022-10-16T03:53:25;14.90;99.90
21678;DHT22;11000;50.360;7.582;2022-10-16T03:55:46;14.90;99.90
21678;DHT22;11000;50.360;7.582;2022-10-16T03:58:06;14.90;99.90
21678;DHT22;11000;50.360;7.582;2022-10-16T04:00:27;14.90;99.90
21678;DHT22;11000;50.360;7.582;2022-10-16T04:02:47;14.90;99.90
21678;DHT22;11000;50.360;7.582;2022-10-16T04:05:08;14.90;99.90
21678;DHT22;11000;50.360;7.582;2022-10-16T04:07:28;14.90;99.90
21678;DHT22;11000;50.360;7.582;2022-10-16T04:09:49;14.90;99.90
21678;DHT22;11000;50.360;7.582;2022-10-16T04:12:12;14.80;99.90
21678;DHT22;11000;50.360;7.582;2022-10-16T04:14:32;14.90;99.90
21678;DHT22;11000;50.360;7.582;2022-10-16T04:16:53;14.90;99.90
21678;DHT22;11000;50.360;7.582;2022-10-16T04:19:14;14.90;99.90
21678;DHT22;11000;50.360;7.582;2022-10-16T04:21:34;14.80;99.90
21678;DHT22;11000;50.360;7.582;2022-10-16T04:23:54;14.80;99.90
21678;DHT22;11000;50.360;7.582;2022-10-16T04:26:15;14.80;99.90
21678;DHT22;11000;50.360;7.582;2022-10-16T04:28:36;14.90;99.90
21678;DHT22;11000;50.360;7.582;2022-10-16T04:30:56;14.80;99.90
21678;DHT22;11000;50.360;7.582;2022-10-16T04:33:17;14.80;99.90
21678;DHT22;11000;50.360;7.582;2022-10-16T04:35:37;14.80;99.90
21678;DHT22;11000;50.360;7.582;2022-10-16T04:37:58;14.80;99.90
21678;DHT22;11000;50.360;7.582;2022-10-16T04:40:19;14.80;99.90
21678;DHT22;11000;50.360;7.582;2022-10-16T04:42:39;14.80;99.90
21678;DHT22;11000;50.360;7.582;2022-10-16T04:45:01;14.70;99.90
21678;DHT22;11000;50.360;7.582;2022-10-16T04:47:21;14.70;99.90
21678;DHT22;11000;50.360;7.582;2022-10-16T04:49:42;14.80;99.90
21678;DHT22;11000;50.360;7.582;2022-10-16T04:52:02;14.80;99.90
21678;DHT22;11000;50.360;7.582;2022-10-16T04:54:23;14.80;99.90
21678;DHT22;11000;50.360;7.582;2022-10-16T04:56:43;14.70;99.90
21678;DHT22;11000;50.360;7.582;2022-10-16T04:59:07;14.80;99.90
21678;DHT22;11000;50.360;7.582;2022-10-16T05:01:27;14.70;99.90
21678;DHT22;11000;50.360;7.582;2022-10-16T05:03:48;14.70;99.90
21678;DHT22;11000;50.360;7.582;2022-10-16T05:06:09;14.70;99.90
21678;DHT22;11000;50.360;7.582;2022-10-16T05:08:29;14.70;99.90
21678;DHT22;11000;50.360;7.582;2022-10-16T05:10:50;14.70;99.90
21678;DHT22;11000;50.360;7.582;2022-10-16T05:13:11;14.70;99.90
21678;DHT22;11000;50.360;7.582;2022-10-16T05:15:31;14.70;99.90
21678;DHT22;11000;50.360;7.582;2022-10-16T05:17:53;14.60;99.90
21678;DHT22;11000;50.360;7.582;2022-10-16T05:20:14;14.70;99.90
21678;DHT22;11000;50.360;7.582;2022-10-16T05:22:34;14.60;99.90
21678;DHT22;11000;50.360;7.582;2022-10-16T05:24:55;14.60;99.90
21678;DHT22;11000;50.360;7.582;2022-10-16T05:27:15;14.60;99.90
21678;DHT22;11000;50.360;7.582;2022-10-16T05:29:39;14.60;99.90
21678;DHT22;11000;50.360;7.582;2022-10-16T05:31:59;14.60;99.90
21678;DHT22;11000;50.360;7.582;2022-10-16T05:34:21;14.60;99.90
21678;DHT22;11000;50.360;7.582;2022-10-16T05:36:41;14.60;99.90
21678;DHT22;11000;50.360;7.582;2022-10-16T05:39:03;14.60;99.90
21678;DHT22;11000;50.360;7.582;2022-10-16T05:41:23;14.60;99.90
21678;DHT22;11000;50.360;7.582;2022-10-16T05:43:46;14.60;99.90
21678;DHT22;11000;50.360;7.582;2022-10-16T05:46:06;14.60;99.90
21678;DHT22;11000;50.360;7.582;2022-10-16T05:48:27;14.60;99.90
21678;DHT22;11000;50.360;7.582;2022-10-16T05:50:48;14.50;99.90
21678;DHT22;11000;50.360;7.582;2022-10-16T05:53:09;14.50;99.90
21678;DHT22;11000;50.360;7.582;2022-10-16T05:55:29;14.50;99.90
21678;DHT22;11000;50.360;7.582;2022-10-16T05:57:50;14.50;99.90
21678;DHT22;11000;50.360;7.582;2022-10-16T06:00:10;14.50;99.90
21678;DHT22;11000;50.360;7.582;2022-10-16T06:02:31;14.50;99.90
21678;DHT22;11000;50.360;7.582;2022-10-16T06:04:52;14.50;99.90
21678;DHT22;11000;50.360;7.582;2022-10-16T06:07:14;14.50;99.90
21678;DHT22;11000;50.360;7.582;2022-10-16T06:09:34;14.50;99.90
21678;DHT22;11000;50.360;7.582;2022-10-16T06:11:55;14.60;99.90
21678;DHT22;11000;50.360;7.582;2022-10-16T06:14:15;14.60;99.90
21678;DHT22;11000;50.360;7.582;2022-10-16T06:16:37;14.60;99.90
21678;DHT22;11000;50.360;7.582;2022-10-16T06:18:57;14.60;99.90
21678;DHT22;11000;50.360;7.582;2022-10-16T06:21:21;14.60;99.90
21678;DHT22;11000;50.360;7.582;2022-10-16T06:23:42;14.70;99.90
21678;DHT22;11000;50.360;7.582;2022-10-16T06:26:10;14.70;99.90
21678;DHT22;11000;50.360;7.582;2022-10-16T06:28:31;14.60;99.90
21678;DHT22;11000;50.360;7.582;2022-10-16T06:30:59;14.60;99.90
21678;DHT22;11000;50.360;7.582;2022-10-16T06:33:19;14.60;99.90
21678;DHT22;11000;50.360;7.582;2022-10-16T06:35:40;14.70;99.90
21678;DHT22;11000;50.360;7.582;2022-10-16T06:38:00;14.60;99.90
21678;DHT22;11000;50.360;7.582;2022-10-16T06:40:21;14.70;99.90
21678;DHT22;11000;50.360;7.582;2022-10-16T06:42:42;14.70;99.90
21678;DHT22;11000;50.360;7.582;2022-10-16T06:45:02;14.70;99.90
21678;DHT22;11000;50.360;7.582;2022-10-16T06:47:23;14.70;99.90
21678;DHT22;11000;50.360;7.582;2022-10-16T06:49:43;14.70;99.90
21678;DHT22;11000;50.360;7.582;2022-10-16T06:52:04;14.70;99.90
21678;DHT22;11000;50.360;7.582;2022-10-16T06:54:25;14.70;99.90
21678;DHT22;11000;50.360;7.582;2022-10-16T06:56:46;14.70;99.90
21678;DHT22;11000;50.360;7.582;2022-10-16T06:59:06;14.80;99.90
21678;DHT22;11000;50.360;7.582;2022-10-16T07:01:28;14.80;99.90
21678;DHT22;11000;50.360;7.582;2022-10-16T07:03:49;14.80;99.90
21678;DHT22;11000;50.360;7.582;2022-10-16T07:06:12;14.80;99.90
21678;DHT22;11000;50.360;7.582;2022-10-16T07:08:37;14.80;99.90
21678;DHT22;11000;50.360;7.582;2022-10-16T07:10:59;14.90;99.90
21678;DHT22;11000;50.360;7.582;2022-10-16T07:13:20;14.90;99.90
21678;DHT22;11000;50.360;7.582;2022-10-16T07:15:41;14.90;99.90
21678;DHT22;11000;50.360;7.582;2022-10-16T07:18:01;14.90;99.90
21678;DHT22;11000;50.360;7.582;2022-10-16T07:20:22;14.90;99.90
21678;DHT22;11000;50.360;7.582;2022-10-16T07:22:42;14.90;99.90
21678;DHT22;11000;50.360;7.582;2022-10-16T07:25:03;15.00;99.90
21678;DHT22;11000;50.360;7.582;2022-10-16T07:27:24;15.00;99.90
21678;DHT22;11000;50.360;7.582;2022-10-16T07:29:44;15.00;99.90
21678;DHT22;11000;50.360;7.582;2022-10-16T07:32:05;15.00;99.90
21678;DHT22;11000;50.360;7.582;2022-10-16T07:34:25;15.10;99.90
21678;DHT22;11000;50.360;7.582;2022-10-16T07:36:50;15.10;99.90
21678;DHT22;11000;50.360;7.582;2022-10-16T07:39:11;15.20;99.90
21678;DHT22;11000;50.360;7.582;2022-10-16T07:41:33;15.20;99.90
21678;DHT22;11000;50.360;7.582;2022-10-16T07:43:57;15.30;99.90
21678;DHT22;11000;50.360;7.582;2022-10-16T07:46:21;15.30;99.90
21678;DHT22;11000;50.360;7.582;2022-10-16T07:48:42;15.20;99.90
21678;DHT22;11000;50.360;7.582;2022-10-16T07:51:06;15.30;99.90
21678;DHT22;11000;50.360;7.582;2022-10-16T07:53:27;15.30;99.90
21678;DHT22;11000;50.360;7.582;2022-10-16T07:55:48;15.30;99.90
21678;DHT22;11000;50.360;7.582;2022-10-16T07:58:08;15.40;99.90
21678;DHT22;11000;50.360;7.582;2022-10-16T08:00:29;15.50;99.90
21678;DHT22;11000;50.360;7.582;2022-10-16T08:02:49;15.50;99.90
21678;DHT22;11000;50.360;7.582;2022-10-16T08:05:10;15.50;99.90
21678;DHT22;11000;50.360;7.582;2022-10-16T08:07:31;15.60;99.90
21678;DHT22;11000;50.360;7.582;2022-10-16T08:09:51;15.60;99.90
21678;DHT22;11000;50.360;7.582;2022-10-16T08:12:12;15.60;99.90
21678;DHT22;11000;50.360;7.582;2022-10-16T08:14:33;15.70;99.90
21678;DHT22;11000;50.360;7.582;2022-10-16T08:16:53;15.70;99.90
21678;DHT22;11000;50.360;7.582;2022-10-16T08:19:14;15.80;99.90
21678;DHT22;11000;50.360;7.582;2022-10-16T08:21:35;15.80;99.90
21678;DHT22;11000;50.360;7.582;2022-10-16T08:23:56;15.90;99.90
21678;DHT22;11000;50.360;7.582;2022-10-16T08:26:17;15.90;99.90
21678;DHT22;11000;50.360;7.582;2022-10-16T08:28:38;15.90;99.90
21678;DHT22;11000;50.360;7.582;2022-10-16T08:31:09;15.90;99.90
21678;DHT22;11000;50.360;7.582;2022-10-16T08:33:30;16.00;99.90
21678;DHT22;11000;50.360;7.582;2022-10-16T08:35:52;16.00;99.90
21678;DHT22;11000;50.360;7.582;2022-10-16T08:38:13;16.10;99.90
21678;DHT22;11000;50.360;7.582;2022-10-16T08:40:36;16.10;99.90
21678;DHT22;11000;50.360;7.582;2022-10-16T08:43:18;16.20;99.90
21678;DHT22;11000;50.360;7.582;2022-10-16T08:46:04;16.20;99.90
21678;DHT22;11000;50.360;7.582;2022-10-16T08:48:30;16.40;99.90
21678;DHT22;11000;50.360;7.582;2022-10-16T08:50:54;16.40;99.90
21678;DHT22;11000;50.360;7.582;2022-10-16T08:53:20;16.30;99.90
21678;DHT22;11000;50.360;7.582;2022-10-16T08:55:46;16.30;99.90
21678;DHT22;11000;50.360;7.582;2022-10-16T08:58:19;16.30;99.90
21678;DHT22;11000;50.360;7.582;2022-10-16T09:00:40;16.40;99.90
21678;DHT22;11000;50.360;7.582;2022-10-16T09:03:22;16.50;99.90
21678;DHT22;11000;50.360;7.582;2022-10-16T09:08:56;16.90;99.90
21678;DHT22;11000;50.360;7.582;2022-10-16T09:11:51;17.00;99.90
21678;DHT22;11000;50.360;7.582;2022-10-16T09:17:01;17.30;99.90
21678;DHT22;11000;50.360;7.582;2022-10-16T09:19:48;17.30;99.90
21678;DHT22;11000;50.360;7.582;2022-10-16T09:22:15;17.30;99.90
21678;DHT22;11000;50.360;7.582;2022-10-16T09:24:36;17.20;99.90
21678;DHT22;11000;50.360;7.582;2022-10-16T09:26:57;17.20;99.90
21678;DHT22;11000;50.360;7.582;2022-10-16T09:29:20;17.20;99.90
21678;DHT22;11000;50.360;7.582;2022-10-16T09:31:42;17.20;99.90
21678;DHT22;11000;50.360;7.582;2022-10-16T09:34:04;17.20;99.90
21678;DHT22;11000;50.360;7.582;2022-10-16T09:36:28;17.20;99.90
21678;DHT22;11000;50.360;7.582;2022-10-16T09:38:49;17.20;99.90
21678;DHT22;11000;50.360;7.582;2022-10-16T09:41:19;17.20;99.90
21678;DHT22;11000;50.360;7.582;2022-10-16T09:46:34;17.10;99.90
21678;DHT22;11000;50.360;7.582;2022-10-16T09:49:00;17.20;99.90
21678;DHT22;11000;50.360;7.582;2022-10-16T09:51:36;17.20;99.90
21678;DHT22;11000;50.360;7.582;2022-10-16T09:56:24;17.50;99.90
21678;DHT22;11000;50.360;7.582;2022-10-16T09:58:50;17.60;99.90
21678;DHT22;11000;50.360;7.582;2022-10-16T10:01:14;17.70;99.90
21678;DHT22;11000;50.360;7.582;2022-10-16T10:03:40;17.80;99.90
21678;DHT22;11000;50.360;7.582;2022-10-16T10:06:25;17.90;99.90
21678;DHT22;11000;50.360;7.582;2022-10-16T10:11:17;18.10;99.90
21678;DHT22;11000;50.360;7.582;2022-10-16T10:13:37;18.30;99.90
21678;DHT22;11000;50.360;7.582;2022-10-16T10:15:58;18.50;99.90
21678;DHT22;11000;50.360;7.582;2022-10-16T10:18:20;18.50;99.90
21678;DHT22;11000;50.360;7.582;2022-10-16T10:20:43;18.50;99.90
21678;DHT22;11000;50.360;7.582;2022-10-16T10:23:26;18.60;99.90
21678;DHT22;11000;50.360;7.582;2022-10-16T10:31:05;18.60;99.90
21678;DHT22;11000;50.360;7.582;2022-10-16T10:36:28;18.50;99.90
21678;DHT22;11000;50.360;7.582;2022-10-16T10:39:30;18.30;99.90
21678;DHT22;11000;50.360;7.582;2022-10-16T10:41:58;18.40;99.90
21678;DHT22;11000;50.360;7.582;2022-10-16T10:44:51;18.40;99.90
21678;DHT22;11000;50.360;7.582;2022-10-16T10:48:05;18.50;99.90
21678;DHT22;11000;50.360;7.582;2022-10-16T10:50:45;18.70;99.90
21678;DHT22;11000;50.360;7.582;2022-10-16T10:53:35;18.90;99.90
21678;DHT22;11000;50.360;7.582;2022-10-16T10:59:02;19.10;99.90
21678;DHT22;11000;50.360;7.582;2022-10-16T11:07:18;19.20;99.90
21678;DHT22;11000;50.360;7.582;2022-10-16T11:09:44;19.30;99.90
21678;DHT22;11000;50.360;7.582;2022-10-16T11:12:17;19.30;99.90
21678;DHT22;11000;50.360;7.582;2022-10-16T11:14:46;19.40;99.90
21678;DHT22;11000;50.360;7.582;2022-10-16T11:22:32;19.20;99.90
21678;DHT22;11000;50.360;7.582;2022-10-16T11:27:30;19.20;99.90
21678;DHT22;11000;50.360;7.582;2022-10-16T11:29:59;19.10;99.90
21678;DHT22;11000;50.360;7.582;2022-10-16T11:32:26;19.20;99.90
21678;DHT22;11000;50.360;7.582;2022-10-16T11:34:51;19.30;99.90
21678;DHT22;11000;50.360;7.582;2022-10-16T11:37:19;19.50;99.90
21678;DHT22;11000;50.360;7.582;2022-10-16T11:39:40;19.60;99.90
21678;DHT22;11000;50.360;7.582;2022-10-16T11:52:48;19.40;99.90
21678;DHT22;11000;50.360;7.582;2022-10-16T11:55:21;19.30;99.90
21678;DHT22;11000;50.360;7.582;2022-10-16T11:57:48;19.20;99.90
21678;DHT22;11000;50.360;7.582;2022-10-16T12:02:50;19.30;99.90
21678;DHT22;11000;50.360;7.582;2022-10-16T12:08:03;19.40;99.90
21678;DHT22;11000;50.360;7.582;2022-10-16T12:10:29;19.40;99.90
21678;DHT22;11000;50.360;7.582;2022-10-16T12:12:51;19.80;99.90
21678;DHT22;11000;50.360;7.582;2022-10-16T12:15:25;19.90;99.90
21678;DHT22;11000;50.360;7.582;2022-10-16T12:17:46;20.00;99.90
21678;DHT22;11000;50.360;7.582;2022-10-16T12:22:33;20.20;99.90
21678;DHT22;11000;50.360;7.582;2022-10-16T12:24:54;20.00;99.90
21678;DHT22;11000;50.360;7.582;2022-10-16T12:27:28;19.80;99.90
21678;DHT22;11000;50.360;7.582;2022-10-16T12:29:55;19.60;99.90
21678;DHT22;11000;50.360;7.582;2022-10-16T12:32:33;19.70;99.90
21678;DHT22;11000;50.360;7.582;2022-10-16T12:34:53;19.70;99.90
21678;DHT22;11000;50.360;7.582;2022-10-16T12:37:35;19.60;99.90
21678;DHT22;11000;50.360;7.582;2022-10-16T12:39:57;19.50;99.90
21678;DHT22;11000;50.360;7.582;2022-10-16T12:44:48;19.70;99.90
21678;DHT22;11000;50.360;7.582;2022-10-16T12:49:54;19.70;99.90
21678;DHT22;11000;50.360;7.582;2022-10-16T12:54:58;19.90;99.90
21678;DHT22;11000;50.360;7.582;2022-10-16T12:57:39;19.70;99.90
21678;DHT22;11000;50.360;7.582;2022-10-16T13:00:24;19.70;99.90
21678;DHT22;11000;50.360;7.582;2022-10-16T13:03:17;19.80;99.90
21678;DHT22;11000;50.360;7.582;2022-10-16T13:06:00;19.90;99.90
21678;DHT22;11000;50.360;7.582;2022-10-16T13:17:28;20.10;99.90
21678;DHT22;11000;50.360;7.582;2022-10-16T13:28:12;20.60;99.90
21678;DHT22;11000;50.360;7.582;2022-10-16T13:30:40;20.70;99.90
21678;DHT22;11000;50.360;7.582;2022-10-16T13:33:06;20.70;99.90
21678;DHT22;11000;50.360;7.582;2022-10-16T13:35:31;20.70;99.90
21678;DHT22;11000;50.360;7.582;2022-10-16T13:38:22;20.70;99.90
21678;DHT22;11000;50.360;7.582;2022-10-16T13:41:04;20.70;99.90
21678;DHT22;11000;50.360;7.582;2022-10-16T13:43:37;20.90;99.90
21678;DHT22;11000;50.360;7.582;2022-10-16T13:46:13;20.80;99.90
21678;DHT22;11000;50.360;7.582;2022-10-16T13:48:34;20.90;99.90
21678;DHT22;11000;50.360;7.582;2022-10-16T13:51:12;20.90;99.90
21678;DHT22;11000;50.360;7.582;2022-10-16T13:53:37;20.90;99.90
21678;DHT22;11000;50.360;7.582;2022-10-16T13:55:58;20.70;99.90
21678;DHT22;11000;50.360;7.582;2022-10-16T13:58:20;20.60;99.90
21678;DHT22;11000;50.360;7.582;2022-10-16T14:00:54;20.60;99.90
21678;DHT22;11000;50.360;7.582;2022-10-16T14:03:15;20.60;99.90
21678;DHT22;11000;50.360;7.582;2022-10-16T14:05:55;20.40;99.90
21678;DHT22;11000;50.360;7.582;2022-10-16T14:08:16;20.50;99.90
21678;DHT22;11000;50.360;7.582;2022-10-16T14:10:38;20.50;99.90
21678;DHT22;11000;50.360;7.582;2022-10-16T14:13:01;20.50;99.90
21678;DHT22;11000;50.360;7.582;2022-10-16T14:15:22;20.50;99.90
21678;DHT22;11000;50.360;7.582;2022-10-16T14:17:44;20.40;99.90
21678;DHT22;11000;50.360;7.582;2022-10-16T14:20:14;20.40;99.90
21678;DHT22;11000;50.360;7.582;2022-10-16T14:22:38;20.40;99.90
21678;DHT22;11000;50.360;7.582;2022-10-16T14:25:01;20.30;99.90
21678;DHT22;11000;50.360;7.582;2022-10-16T14:27:30;20.30;99.90
21678;DHT22;11000;50.360;7.582;2022-10-16T14:30:22;20.20;99.90
21678;DHT22;11000;50.360;7.582;2022-10-16T14:32:56;20.20;99.90
21678;DHT22;11000;50.360;7.582;2022-10-16T14:35:26;20.20;99.90
21678;DHT22;11000;50.360;7.582;2022-10-16T14:37:50;20.10;99.90
21678;DHT22;11000;50.360;7.582;2022-10-16T14:40:14;20.10;99.90
21678;DHT22;11000;50.360;7.582;2022-10-16T14:42:35;20.10;99.90
21678;DHT22;11000;50.360;7.582;2022-10-16T14:44:56;20.00;99.90
21678;DHT22;11000;50.360;7.582;2022-10-16T14:47:19;20.00;99.90
21678;DHT22;11000;50.360;7.582;2022-10-16T14:49:45;19.90;99.90
21678;DHT22;11000;50.360;7.582;2022-10-16T14:52:12;19.90;99.90
21678;DHT22;11000;50.360;7.582;2022-10-16T14:54:33;19.80;99.90
21678;DHT22;11000;50.360;7.582;2022-10-16T14:56:55;19.80;99.90
21678;DHT22;11000;50.360;7.582;2022-10-16T14:59:27;19.80;99.90
21678;DHT22;11000;50.360;7.582;2022-10-16T15:01:49;19.70;99.90
21678;DHT22;11000;50.360;7.582;2022-10-16T15:04:11;19.80;99.90
21678;DHT22;11000;50.360;7.582;2022-10-16T15:06:32;19.70;99.90
21678;DHT22;11000;50.360;7.582;2022-10-16T15:08:52;19.70;99.90
21678;DHT22;11000;50.360;7.582;2022-10-16T15:11:15;19.70;99.90
21678;DHT22;11000;50.360;7.582;2022-10-16T15:13:36;19.70;99.90
21678;DHT22;11000;50.360;7.582;2022-10-16T15:15:57;19.80;99.90
21678;DHT22;11000;50.360;7.582;2022-10-16T15:18:18;19.70;99.90
21678;DHT22;11000;50.360;7.582;2022-10-16T15:20:42;19.70;99.90
21678;DHT22;11000;50.360;7.582;2022-10-16T15:23:05;19.70;99.90
21678;DHT22;11000;50.360;7.582;2022-10-16T15:25:35;19.70;99.90
21678;DHT22;11000;50.360;7.582;2022-10-16T15:27:57;19.70;99.90
21678;DHT22;11000;50.360;7.582;2022-10-16T15:30:17;19.60;99.90
21678;DHT22;11000;50.360;7.582;2022-10-16T15:32:38;19.50;99.90
21678;DHT22;11000;50.360;7.582;2022-10-16T15:34:58;19.50;99.90
21678;DHT22;11000;50.360;7.582;2022-10-16T15:37:19;19.40;99.90
21678;DHT22;11000;50.360;7.582;2022-10-16T15:39:39;19.40;99.90
21678;DHT22;11000;50.360;7.582;2022-10-16T15:42:00;19.30;99.90
21678;DHT22;11000;50.360;7.582;2022-10-16T15:44:21;19.30;99.90
21678;DHT22;11000;50.360;7.582;2022-10-16T15:46:46;19.30;99.90
21678;DHT22;11000;50.360;7.582;2022-10-16T15:49:09;19.20;99.90
21678;DHT22;11000;50.360;7.582;2022-10-16T15:51:30;19.20;99.90
21678;DHT22;11000;50.360;7.582;2022-10-16T15:53:52;19.20;99.90
21678;DHT22;11000;50.360;7.582;2022-10-16T15:56:14;19.20;99.90
21678;DHT22;11000;50.360;7.582;2022-10-16T15:58:35;19.20;99.90
21678;DHT22;11000;50.360;7.582;2022-10-16T16:00:59;19.20;99.90
21678;DHT22;11000;50.360;7.582;2022-10-16T16:03:23;19.10;99.90
21678;DHT22;11000;50.360;7.582;2022-10-16T16:05:44;19.20;99.90
21678;DHT22;11000;50.360;7.582;2022-10-16T16:08:04;19.10;99.90
21678;DHT22;11000;50.360;7.582;2022-10-16T16:10:25;19.10;99.90
21678;DHT22;11000;50.360;7.582;2022-10-16T16:12:47;19.00;99.90
21678;DHT22;11000;50.360;7.582;2022-10-16T16:15:12;19.00;99.90
21678;DHT22;11000;50.360;7.582;2022-10-16T16:17:33;19.00;99.90
21678;DHT22;11000;50.360;7.582;2022-10-16T16:19:54;19.00;99.90
21678;DHT22;11000;50.360;7.582;2022-10-16T16:22:15;19.00;99.90
21678;DHT22;11000;50.360;7.582;2022-10-16T16:24:35;18.90;99.90
21678;DHT22;11000;50.360;7.582;2022-10-16T16:26:56;18.90;99.90
21678;DHT22;11000;50.360;7.582;2022-10-16T16:29:17;18.90;99.90
21678;DHT22;11000;50.360;7.582;2022-10-16T16:31:37;18.80;99.90
21678;DHT22;11000;50.360;7.582;2022-10-16T16:33:58;18.80;99.90
21678;DHT22;11000;50.360;7.582;2022-10-16T16:36:19;18.80;99.90
21678;DHT22;11000;50.360;7.582;2022-10-16T16:38:40;18.80;99.90
21678;DHT22;11000;50.360;7.582;2022-10-16T16:41:18;18.70;99.90
21678;DHT22;11000;50.360;7.582;2022-10-16T16:43:39;18.70;99.90
21678;DHT22;11000;50.360;7.582;2022-10-16T16:46:01;18.70;99.90